Time;durP1;ratioP1;P1;durP2;ratioP2;P2;SDS_P1;SDS_P2;PMS_P1;PMS_P2;Temp;Humidity;BMP_temperature;BMP_pressure;BME280_temperature;BME280_humidity;BME280_pressure;Samples;Min_cycle;Max_cycle;Signal;HPM_P1;HPM_P2
2022/11/25 00:00:58;;;;;;;41.70;19.70;;;;;;;7.61;57.49;100024.29;1889739;103;25808;-81
2022/11/25 00:04:24;;;;;;;41.08;21.10;;;;;;;7.62;57.47;100026.04;1852856;106;25897;-81
2022/11/25 00:11:42;;;;;;;35.48;18.75;;;;;;;7.62;57.45;100022.15;1789889;108;25912;-80
2022/11/25 00:15:44;;;;;;;;;;;;;;;;;;;;;
2022/11/25 00:19:55;;;;;;;;;;;;;;;;;;;;;
2022/11/25 00:25:06;;;;;;;36.15;20.43;;;;;;;7.61;57.43;100032.95;1785151;108;26107;-82
2022/11/25 00:29:33;;;;;;;41.50;20.20;;;;;;;7.61;57.40;100029.48;1773552;108;25934;-81
2022/11/25 00:34:30;;;;;;;;;;;;;;;;;;;;;
2022/11/25 00:38:10;;;;;;;36.88;18.90;;;;;;;7.59;57.38;100039.80;1781843;105;25798;-81
2022/11/25 00:45:37;;;;;;;38.60;21.25;;;;;;;7.58;57.36;100053.61;1687420;111;26078;-80
2022/11/25 00:49:11;;;;;;;47.13;21.40;;;;;;;7.57;57.39;100047.97;1728977;112;25930;-81
2022/11/25 00:52:39;;;;;;;40.00;20.12;;;;;;;7.58;57.34;100054.48;1736681;112;25858;-80
2022/11/25 00:56:29;;;;;;;;;;;;;;;;;;;;;
2022/11/25 00:59:57;;;;;;;39.45;19.85;;;;;;;7.57;57.36;100051.44;1719262;110;26459;-80
2022/11/25 01:04:09;;;;;;;45.33;21.73;;;;;;;7.57;57.33;100056.63;1794524;109;25754;-80
2022/11/25 01:07:33;;;;;;;43.40;21.73;;;;;;;7.58;57.34;100053.61;1801102;107;25852;-80
2022/11/25 01:11:10;;;;;;;41.42;20.43;;;;;;;7.57;57.32;100055.33;1786099;107;25922;-81
2022/11/25 01:14:53;;;;;;;36.80;19.30;;;;;;;7.58;57.31;100058.80;1770292;110;25963;-81
2022/11/25 01:18:50;;;;;;;;;;;;;;;;;;;;;
2022/11/25 01:22:27;;;;;;;40.73;20.43;;;;;;;7.58;57.29;100061.39;1797605;107;25906;-81
2022/11/25 01:26:00;;;;;;;44.35;20.62;;;;;;;7.58;57.29;100061.39;1794920;107;25726;-80
2022/11/25 01:29:49;;;;;;;41.02;20.35;;;;;;;7.57;57.29;100065.70;1795572;106;26039;-81
2022/11/25 01:33:26;;;;;;;45.98;22.30;;;;;;;7.58;57.27;100071.77;1794696;107;25403;-80
2022/11/25 01:44:43;;;;;;;44.48;21.97;;;;;;;7.58;57.24;100073.06;1857034;102;25955;-81
2022/11/25 01:48:18;;;;;;;40.15;20.82;;;;;;;7.57;57.24;100070.89;1866870;103;25868;-81
2022/11/25 01:52:21;;;;;;;43.40;22.00;;;;;;;7.56;57.22;100063.95;1856576;103;26025;-80
2022/11/25 01:56:13;;;;;;;44.25;20.30;;;;;;;7.58;57.22;100067.87;1869605;103;26340;-81
2022/11/25 02:03:42;;;;;;;47.08;21.30;;;;;;;7.57;57.21;100075.20;1864365;104;25789;-81
2022/11/25 02:07:13;;;;;;;45.58;22.17;;;;;;;7.57;57.21;100078.67;1805027;105;25894;-80
2022/11/25 02:10:50;;;;;;;48.68;21.68;;;;;;;7.57;57.19;100073.91;1785067;108;25931;-80
2022/11/25 02:14:24;;;;;;;52.05;23.47;;;;;;;7.58;57.19;100078.25;1755272;111;25715;-80
2022/11/25 02:22:00;;;;;;;40.12;19.73;;;;;;;7.57;57.19;100081.27;1767135;110;26513;-80
2022/11/25 02:25:36;;;;;;;49.20;21.42;;;;;;;7.59;57.18;100083.89;1783083;108;25986;-81
2022/11/25 02:29:04;;;;;;;45.52;22.00;;;;;;;7.59;57.18;100082.59;1767527;110;25891;-81
2022/11/25 02:32:45;;;;;;;48.28;20.90;;;;;;;7.59;57.15;100080.00;1768822;110;26545;-81
2022/11/25 02:36:31;;;;;;;42.85;20.92;;;;;;;7.59;57.16;100070.92;1757900;108;25910;-81
2022/11/25 02:40:01;;;;;;;51.20;23.35;;;;;;;7.58;57.16;100072.64;1757039;108;26002;-81
2022/11/25 02:43:39;;;;;;;48.60;22.48;;;;;;;7.59;57.14;100076.11;1749782;109;26294;-82
2022/11/25 02:47:03;;;;;;;48.38;22.98;;;;;;;7.60;57.15;100083.08;1728474;108;26350;-80
2022/11/25 02:50:31;;;;;;;44.98;22.13;;;;;;;7.61;57.14;100080.06;1716079;113;25850;-81
2022/11/25 02:54:03;;;;;;;52.55;22.67;;;;;;;7.61;57.14;100081.36;1829434;106;26050;-81
2022/11/25 02:57:34;;;;;;;49.73;23.05;;;;;;;7.61;57.13;100082.66;1949382;99;25818;-81
2022/11/25 03:01:00;;;;;;;51.55;22.40;;;;;;;7.61;57.12;100083.95;1950690;100;26250;-81
2022/11/25 03:04:24;;;;;;;46.63;22.25;;;;;;;7.61;57.13;100082.66;2042214;94;25849;-81
2022/11/25 03:07:44;;;;;;;52.62;23.25;;;;;;;7.61;57.11;100083.95;2070728;94;25806;-81
2022/11/25 03:11:08;;;;;;;43.07;20.87;;;;;;;7.61;57.12;100083.95;2067675;93;29261;-80
2022/11/25 03:14:40;;;;;;;50.73;22.55;;;;;;;7.61;57.12;100087.42;2167921;89;25882;-81
2022/11/25 03:18:09;;;;;;;42.60;20.72;;;;;;;7.61;57.10;100086.55;2152584;90;25631;-81
2022/11/25 03:21:40;;;;;;;42.10;19.65;;;;;;;7.62;57.10;100085.71;2082495;92;25802;-81
2022/11/25 03:25:11;;;;;;;45.45;22.82;;;;;;;7.60;57.10;100084.37;2059506;93;25897;-80
2022/11/25 03:28:50;;;;;;;45.83;20.57;;;;;;;7.61;57.10;100090.44;2080201;93;25875;-80
2022/11/25 03:32:26;;;;;;;41.10;19.67;;;;;;;7.60;57.08;100093.45;2036409;93;25896;-78
2022/11/25 03:36:00;;;;;;;48.02;21.77;;;;;;;7.60;57.08;100093.88;2031607;94;25870;-80
2022/11/25 03:39:31;;;;;;;49.27;21.20;;;;;;;7.60;57.08;100099.95;2034294;96;25875;-79
2022/11/25 03:43:03;;;;;;;46.35;21.57;;;;;;;7.60;57.07;100101.24;2034520;95;25853;-82
2022/11/25 03:46:33;;;;;;;43.90;22.15;;;;;;;7.60;57.07;100110.75;1973744;97;26349;-82
2022/11/25 03:50:03;;;;;;;44.98;21.95;;;;;;;7.61;57.06;100106.01;2004585;96;25911;-82
2022/11/25 03:53:25;;;;;;;45.35;20.90;;;;;;;7.60;57.06;100105.55;1998893;98;25890;-80
2022/11/25 03:57:06;;;;;;;45.45;21.50;;;;;;;7.61;57.05;100103.42;1989919;97;25997;-80
2022/11/25 04:00:36;;;;;;;41.42;20.55;;;;;;;7.61;57.05;100111.20;1989255;97;25979;-81
2022/11/25 04:04:08;;;;;;;42.90;21.07;;;;;;;7.61;57.05;100117.69;1997328;98;25653;-81
2022/11/25 04:07:50;;;;;;;44.40;20.92;;;;;;;7.61;57.04;100123.75;2002264;96;25868;-80
2022/11/25 04:12:45;;;;;;;44.40;21.15;;;;;;;7.61;57.03;100116.39;1984577;98;26027;-80
2022/11/25 04:14:58;;;;;;;39.90;19.82;;;;;;;7.61;57.04;100125.05;1993424;97;25875;-80
2022/11/25 04:18:36;;;;;;;45.35;20.75;;;;;;;7.60;57.02;100120.70;2001742;97;25955;-80
2022/11/25 04:21:52;;;;;;;45.50;23.65;;;;;;;7.60;57.04;100123.30;1952502;99;25945;-80
2022/11/25 04:25:24;;;;;;;40.00;19.77;;;;;;;7.60;57.03;100121.13;1954531;100;25970;-80
2022/11/25 04:28:44;;;;;;;45.58;21.70;;;;;;;7.60;57.01;100131.50;1946632;98;26384;-80
2022/11/25 04:32:15;;;;;;;44.03;21.02;;;;;;;7.61;57.02;100130.66;1951746;100;25851;-80
2022/11/25 04:35:44;;;;;;;45.33;21.50;;;;;;;7.61;57.01;100133.25;1947710;99;25973;-82
2022/11/25 04:43:16;;;;;;;;;;;;;;;;;;;;;
2022/11/25 04:50:38;;;;;;;41.17;21.17;;;;;;;7.61;57.00;100150.11;1882784;103;25893;-81
2022/11/25 04:54:11;;;;;;;47.80;20.65;;;;;;;7.59;57.01;100156.53;1885701;103;26016;-81
2022/11/25 04:57:41;;;;;;;38.28;19.05;;;;;;;7.59;57.01;100156.53;1816817;106;26251;-81
2022/11/25 05:01:19;;;;;;;42.85;20.45;;;;;;;7.58;57.01;100157.38;1803075;107;25998;-81
2022/11/25 05:04:52;;;;;;;43.90;22.07;;;;;;;7.58;57.01;100163.86;1802923;107;25392;-81
2022/11/25 05:08:30;;;;;;;40.90;19.82;;;;;;;7.60;57.02;100160.03;1785734;106;25963;-82
2022/11/25 05:11:53;;;;;;;38.63;20.05;;;;;;;7.59;57.01;100161.72;1752115;109;25929;-81
2022/11/25 05:15:30;;;;;;;45.67;21.07;;;;;;;7.60;57.02;100162.63;1789694;106;28382;-81
2022/11/25 05:19:12;;;;;;;35.98;19.55;;;;;;;7.60;57.01;100165.22;1791159;105;26230;-81
2022/11/25 05:22:53;;;;;;;39.18;19.90;;;;;;;7.61;57.00;100167.85;1863231;104;25778;-82
2022/11/25 05:26:34;;;;;;;42.40;20.68;;;;;;;7.61;57.00;100174.76;1868693;105;25843;-81
2022/11/25 05:30:14;;;;;;;38.48;19.98;;;;;;;7.61;57.00;100174.34;1834422;105;25837;-81
2022/11/25 05:33:51;;;;;;;39.80;19.92;;;;;;;7.62;57.00;100185.59;1858883;104;25847;-81
2022/11/25 05:37:15;;;;;;;42.98;22.15;;;;;;;7.62;56.99;100179.10;1802193;108;26026;-81
2022/11/25 05:40:44;;;;;;;38.95;19.45;;;;;;;7.62;56.98;100186.47;1777349;110;26017;-81
2022/11/25 05:44:14;;;;;;;40.40;19.43;;;;;;;7.62;56.98;100186.47;1768556;110;26030;-80
2022/11/25 05:47:49;;;;;;;43.25;20.65;;;;;;;7.62;56.97;100181.70;1793369;109;25825;-80
2022/11/25 05:51:22;;;;;;;39.50;20.65;;;;;;;7.62;56.98;100186.47;1846981;106;25990;-80
2022/11/25 05:54:48;;;;;;;43.05;19.77;;;;;;;7.61;56.97;100189.03;1847665;105;25881;-80
2022/11/25 05:58:20;;;;;;;39.78;20.95;;;;;;;7.60;56.97;100189.45;1941725;100;25821;-80
2022/11/25 06:05:17;;;;;;;42.75;20.77;;;;;;;7.61;56.97;100195.09;1844042;105;25917;-82
2022/11/25 06:08:51;;;;;;;35.28;18.98;;;;;;;7.62;56.96;100195.55;1847019;105;25790;-82
2022/11/25 06:12:20;;;;;;;42.53;19.90;;;;;;;7.61;56.96;100200.70;1817383;107;25857;-82
2022/11/25 06:15:51;;;;;;;36.90;18.15;;;;;;;7.61;56.96;100202.00;1837791;105;25946;-82
2022/11/25 06:22:47;;;;;;;37.90;20.30;;;;;;;7.62;56.94;100203.33;1840888;106;25768;-81
2022/11/25 06:26:32;;;;;;;36.38;17.20;;;;;;;7.61;56.96;100205.89;1854580;104;25859;-82
2022/11/25 06:30:14;;;;;;;39.83;18.20;;;;;;;7.61;56.95;100200.70;1853873;105;25863;-79
2022/11/25 06:33:49;;;;;;;35.13;17.57;;;;;;;7.62;56.96;100203.75;1883752;102;25973;-81
2022/11/25 06:37:24;;;;;;;35.17;18.00;;;;;;;7.62;56.96;100211.11;1917662;103;26462;-81
2022/11/25 06:41:05;;;;;;;43.08;17.67;;;;;;;7.64;56.96;100203.40;1905298;102;25821;-83
2022/11/25 06:44:33;;;;;;;43.20;19.27;;;;;;;7.64;56.94;100205.99;1904095;101;26035;-82
2022/11/25 06:48:05;;;;;;;33.38;17.57;;;;;;;7.65;56.92;100210.34;1910576;102;26057;-81
2022/11/25 06:51:33;;;;;;;40.83;18.65;;;;;;;7.66;56.90;100213.39;1907212;102;25826;-81
2022/11/25 06:55:07;;;;;;;38.00;19.95;;;;;;;7.66;56.91;100215.98;1914098;102;25845;-82
2022/11/25 06:58:44;;;;;;;33.73;18.30;;;;;;;7.66;56.89;100219.48;1943777;98;25791;-80
2022/11/25 07:02:15;;;;;;;38.55;18.30;;;;;;;7.68;56.90;100223.42;2076227;91;25784;-81
2022/11/25 07:05:48;;;;;;;35.37;18.33;;;;;;;7.68;56.85;100221.70;2117468;91;25738;-82
2022/11/25 07:09:23;;;;;;;40.43;18.90;;;;;;;7.69;56.85;100224.75;2079613;94;25838;-82
2022/11/25 07:12:49;;;;;;;40.23;19.82;;;;;;;7.69;56.86;100227.34;2079817;93;26675;-83
2022/11/25 07:16:19;;;;;;;32.65;17.85;;;;;;;7.71;56.84;100236.07;2076893;93;25811;-81
2022/11/25 07:19:44;;;;;;;40.75;20.25;;;;;;;7.72;56.83;100231.76;2102204;91;25893;-81
2022/11/25 07:23:12;;;;;;;41.48;20.08;;;;;;;7.72;56.83;100226.15;2174249;90;25874;-80
2022/11/25 07:27:00;;;;;;;;;;;;;;;;;;;;;
2022/11/25 07:30:38;;;;;;;35.00;17.55;;;;;;;7.75;56.82;100234.03;2140591;90;25874;-88
2022/11/25 07:34:17;;;;;;;41.20;19.37;;;;;;;7.77;56.79;100234.10;2148789;90;25809;-82
2022/11/25 07:37:52;;;;;;;36.13;19.32;;;;;;;7.77;56.79;100241.89;2162188;88;25936;-82
2022/11/25 07:41:21;;;;;;;45.17;20.15;;;;;;;7.78;56.78;100242.34;2126085;91;25954;-82
2022/11/25 07:44:54;;;;;;;34.03;19.98;;;;;;;7.80;56.76;100243.29;2165010;89;25974;-82
2022/11/25 07:48:44;;;;;;;39.53;19.60;;;;;;;7.80;56.74;100245.47;2162370;89;25965;-82
2022/11/25 07:52:13;;;;;;;36.88;19.37;;;;;;;7.83;56.74;100243.78;2149836;90;26443;-82
2022/11/25 07:55:41;;;;;;;37.05;19.32;;;;;;;7.82;56.72;100244.20;2136932;91;25721;-82
2022/11/25 07:59:11;;;;;;;39.88;20.12;;;;;;;7.85;56.73;100246.02;2114228;91;25872;-81
2022/11/25 08:02:42;;;;;;;38.40;19.07;;;;;;;7.84;56.69;100246.44;2138053;90;25768;-83
2022/11/25 08:06:18;;;;;;;41.73;20.27;;;;;;;7.87;56.68;100252.16;2180900;89;25834;-82
2022/11/25 08:09:55;;;;;;;;;;;;;;;;;;;;;
2022/11/25 08:13:31;;;;;;;43.63;21.80;;;;;;;7.89;56.68;100259.13;2192775;89;25862;-83
2022/11/25 08:16:59;;;;;;;;;;;;;;;;;;;;;
2022/11/25 08:20:40;;;;;;;41.30;20.57;;;;;;;7.91;56.64;100266.57;2226471;84;25613;-87
2022/11/25 08:24:22;;;;;;;39.20;19.00;;;;;;;7.91;56.63;100261.80;2228065;88;25808;-84
2022/11/25 08:28:01;;;;;;;37.25;19.42;;;;;;;7.94;56.62;100267.09;2190223;89;25731;-84
2022/11/25 08:35:21;;;;;;;39.53;19.75;;;;;;;7.97;56.58;100277.16;2018183;96;26402;-83
2022/11/25 08:39:14;;;;;;;42.35;19.80;;;;;;;8.01;56.57;100276.84;1988174;96;45256;-88
2022/11/25 08:42:44;;;;;;;40.00;20.37;;;;;;;8.01;56.55;100272.52;2003613;97;25861;-76
2022/11/25 08:53:31;;;;;;;47.17;22.75;;;;;;;8.08;56.47;100287.87;1879572;104;26233;-81
2022/11/25 08:57:00;;;;;;;42.48;22.27;;;;;;;8.09;56.44;100296.55;1864681;104;25861;-75
2022/11/25 09:00:23;;;;;;;47.90;22.22;;;;;;;8.12;56.42;100300.12;1847124;105;26429;-74
2022/11/25 09:04:06;;;;;;;37.78;20.77;;;;;;;8.13;56.38;100294.51;1837887;106;25869;-78
2022/11/25 09:11:12;;;;;;;43.60;22.17;;;;;;;8.15;56.36;100294.16;1851501;104;25948;-77
2022/11/25 09:14:28;;;;;;;48.55;20.32;;;;;;;8.17;56.34;100299.86;1833498;106;25874;-73
2022/11/25 09:18:24;;;;;;;;;;;;;;;;;;;;;
2022/11/25 09:21:51;;;;;;;40.65;21.02;;;;;;;8.21;56.33;100293.05;1897186;103;25814;-76
2022/11/25 09:25:32;;;;;;;45.48;21.65;;;;;;;8.24;56.30;100300.95;1863958;105;25837;-74
2022/11/25 09:29:03;;;;;;;47.17;21.05;;;;;;;8.26;56.28;100297.95;1851937;105;25953;-74
2022/11/25 09:32:45;;;;;;;49.77;23.00;;;;;;;8.27;56.25;100292.83;1888683;103;26108;-77
2022/11/25 09:36:25;;;;;;;41.20;20.62;;;;;;;8.28;56.23;100294.58;1864764;104;25905;-77
2022/11/25 09:39:58;;;;;;;39.53;19.67;;;;;;;8.28;56.21;100294.58;1865542;105;25713;-82
2022/11/25 09:48:17;;;;;;;48.95;22.40;;;;;;;8.28;56.17;100302.38;1929252;100;26014;-78
2022/11/25 09:52:56;;;;;;;43.15;22.05;;;;;;;8.27;56.17;100296.72;1859359;103;25921;-77
2022/11/25 09:56:40;;;;;;;43.95;21.73;;;;;;;8.28;56.17;100304.97;1856236;104;25845;-79
2022/11/25 10:00:39;;;;;;;43.70;21.23;;;;;;;8.29;56.14;100312.34;1853981;104;26447;-82
2022/11/25 10:07:49;;;;;;;47.23;20.97;;;;;;;8.31;56.12;100309.39;1869912;105;25980;-80
2022/11/25 10:11:33;;;;;;;42.45;22.13;;;;;;;8.32;56.09;100308.55;1871453;104;25909;-77
2022/11/25 10:15:20;;;;;;;40.20;21.57;;;;;;;8.33;56.06;100310.30;1848561;105;25996;-76
2022/11/25 10:18:59;;;;;;;43.42;22.67;;;;;;;8.34;56.04;100312.51;1817611;107;25913;-77
2022/11/25 10:22:39;;;;;;;47.78;23.75;;;;;;;8.34;56.02;100313.39;1798434;106;26428;-78
2022/11/25 10:26:23;;;;;;;42.90;21.75;;;;;;;8.34;56.01;100317.28;1786448;109;25880;-76
2022/11/25 10:30:02;;;;;;;49.13;22.27;;;;;;;8.34;55.99;100317.28;1894803;102;25900;-83
2022/11/25 10:34:00;;;;;;;53.08;24.50;;;;;;;8.36;55.96;100318.61;1933585;100;26087;-76
2022/11/25 10:37:40;;;;;;;47.35;22.75;;;;;;;8.37;55.95;100321.28;1954201;100;25872;-79
2022/11/25 10:41:24;;;;;;;44.48;23.25;;;;;;;8.39;55.97;100329.14;1940999;100;25748;-78
2022/11/25 10:44:56;;;;;;;43.58;21.85;;;;;;;8.39;55.96;100324.82;1967195;97;25801;-77
2022/11/25 10:49:32;;;;;;;47.10;22.77;;;;;;;8.41;55.93;100330.08;1972059;98;25807;-84
2022/11/25 10:53:29;;;;;;;45.60;24.12;;;;;;;8.43;55.91;100327.09;1967102;99;25855;-77
2022/11/25 10:57:00;;;;;;;45.05;22.75;;;;;;;8.46;55.88;100329.79;2000214;96;25903;-76
2022/11/25 11:00:37;;;;;;;47.80;23.50;;;;;;;8.47;55.88;100337.66;1979505;98;25811;-82
2022/11/25 11:04:17;;;;;;;44.15;21.00;;;;;;;8.49;55.89;100335.08;2001186;95;25836;-79
2022/11/25 11:08:37;;;;;;;48.50;24.90;;;;;;;8.50;55.88;100335.16;2024230;94;25986;-77
2022/11/25 11:12:50;;;;;;;45.03;23.07;;;;;;;8.50;55.86;100337.75;2055233;93;26607;-77
2022/11/25 11:16:53;;;;;;;;;;;;;;;;;;;;;
2022/11/25 11:20:35;;;;;;;37.95;20.17;;;;;;;8.56;55.84;100332.27;2093298;92;25883;-76
2022/11/25 11:24:37;;;;;;;;;;;;;;;;;;;;;
2022/11/25 11:31:55;;;;;;;38.83;21.60;;;;;;;8.59;55.83;100331.94;1980176;97;25863;-77
2022/11/25 11:35:59;;;;;;;37.33;21.07;;;;;;;8.61;55.80;100330.70;2001685;97;25966;-79
2022/11/25 11:39:59;;;;;;;38.08;20.43;;;;;;;8.62;55.79;100333.75;2022304;94;26289;-76
2022/11/25 11:43:50;;;;;;;35.23;20.40;;;;;;;8.61;55.77;100332.88;2012213;96;26144;-77
2022/11/25 11:47:39;;;;;;;40.65;21.60;;;;;;;8.61;55.79;100338.08;1966064;97;25867;-76
2022/11/25 11:51:50;;;;;;;35.43;18.37;;;;;;;8.61;55.77;100339.38;1961375;98;26189;-83
2022/11/25 11:55:51;;;;;;;38.55;19.48;;;;;;;8.63;57.77;100331.19;1967039;99;25885;-83
2022/11/25 11:59:49;;;;;;;41.15;19.95;;;;;;;9.17;60.38;100349.67;1986743;98;26622;-77
2022/11/25 12:03:21;;;;;;;31.75;18.77;;;;;;;9.21;60.06;100342.42;1983609;95;25887;-79
2022/11/25 12:07:05;;;;;;;42.67;19.87;;;;;;;9.15;60.05;100340.97;2059985;94;25824;-78
2022/11/25 12:10:47;;;;;;;43.58;20.20;;;;;;;9.12;59.85;100343.48;2029795;97;25745;-74
2022/11/25 12:14:41;;;;;;;37.48;21.95;;;;;;;9.12;61.04;100344.36;2039756;96;25839;-79
2022/11/25 12:18:51;;;;;;;37.15;20.02;;;;;;;9.18;60.93;100344.96;2092366;92;25729;-81
2022/11/25 12:22:28;;;;;;;42.03;21.73;;;;;;;9.15;60.55;100334.47;2110891;92;25735;-80
2022/11/25 12:26:00;;;;;;;36.73;20.32;;;;;;;9.12;60.39;100338.28;2124194;92;25800;-74
2022/11/25 12:30:05;;;;;;;35.50;21.42;;;;;;;9.08;60.31;100339.00;2109629;90;25862;-74
2022/11/25 12:34:13;;;;;;;40.17;20.50;;;;;;;9.06;60.25;100347.20;2120563;91;25795;-83
2022/11/25 12:38:48;;;;;;;;;;;;;;;;;;;;;
2022/11/25 12:42:41;;;;;;;40.83;21.25;;;;;;;8.96;60.10;100351.24;1956919;98;26021;-76
2022/11/25 12:46:27;;;;;;;39.13;20.62;;;;;;;8.91;59.98;100348.91;1988185;97;25952;-79
2022/11/25 12:50:08;;;;;;;;;;;;;;;;;;;;;
2022/11/25 12:53:53;;;;;;;44.65;21.23;;;;;;;8.83;59.87;100345.21;1983940;97;25949;-74
2022/11/25 12:57:59;;;;;;;45.00;22.48;;;;;;;8.81;59.80;100355.58;2000098;97;25854;-74
2022/11/25 13:01:53;;;;;;;41.53;21.25;;;;;;;8.77;59.77;100351.09;2017966;97;25900;-76
2022/11/25 13:05:37;;;;;;;49.30;25.77;;;;;;;8.74;59.74;100358.41;2010994;96;26562;-82
2022/11/25 13:09:56;;;;;;;;;;;;;;;;;;;;;
2022/11/25 13:13:35;;;;;;;60.90;27.15;;;;;;;8.68;59.56;100346.94;2174411;87;25830;-75
2022/11/25 13:17:14;;;;;;;;;;;;;;;;;;;;;
2022/11/25 13:20:35;;;;;;;68.60;27.10;;;;;;;8.03;60.69;100356.55;2222466;87;32447;-78
2022/11/25 13:24:21;;;;;;;77.17;28.65;;;;;;;7.97;61.24;100354.16;2145887;90;25804;-80
2022/11/25 13:27:49;;;;;;;;;;;;;;;7.83;61.84;100354.08;2183638;87;25838;-76
2022/11/25 13:31:40;;;;;;;71.77;29.35;;;;;;;7.63;62.39;100358.19;2239299;87;25443;-77
2022/11/25 13:35:41;;;;;;;69.37;28.75;;;;;;;7.53;62.92;100358.70;2220485;87;26047;-76
2022/11/25 13:39:54;;;;;;;74.67;28.50;;;;;;;7.49;63.15;100356.80;2231197;86;25768;-77
2022/11/25 13:43:37;;;;;;;61.70;29.10;;;;;;;7.42;63.51;100362.19;2234169;87;25614;-78
2022/11/25 13:47:41;;;;;;;77.00;31.68;;;;;;;7.37;63.30;100357.68;2210479;88;25842;-76
2022/11/25 13:51:34;;;;;;;66.25;29.87;;;;;;;7.17;62.44;100356.95;2213907;86;26328;-82
2022/11/25 13:55:54;;;;;;;65.97;30.85;;;;;;;6.91;62.17;100359.44;2131937;91;25753;-81
2022/11/25 14:03:37;;;;;;;71.22;32.93;;;;;;;6.54;62.09;100373.56;2145162;90;25649;-80
2022/11/25 14:07:42;;;;;;;;;;;;;;;;;;;;;
2022/11/25 14:11:57;;;;;;;;;;;;;;;;;;;;;
2022/11/25 14:16:04;;;;;;;61.13;30.90;;;;;;;6.43;62.63;100385.63;2054594;94;26167;-81
2022/11/25 14:19:59;;;;;;;66.55;32.00;;;;;;;6.51;62.57;100382.92;2019008;95;25838;-76
2022/11/25 14:24:21;;;;;;;;;;;;;;;;;;;;;
2022/11/25 14:32:35;;;;;;;55.55;29.63;;;;;;;6.77;62.59;100382.23;1938093;97;25772;-84
2022/11/25 14:36:42;;;;;;;58.98;27.42;;;;;;;7.01;62.36;100382.70;1994613;96;26034;-81
2022/11/25 14:40:36;;;;;;;56.42;27.35;;;;;;;7.20;62.19;100386.47;1905396;102;25981;-83
2022/11/25 14:44:38;;;;;;;;;;;;;;;;;;;;;
2022/11/25 14:48:43;;;;;;;;;;;;;;;;;;;;;
2022/11/25 14:52:09;;;;;;;53.65;27.17;;;;;;;7.54;61.79;100405.44;1872396;103;26036;-88
2022/11/25 14:55:56;;;;;;;48.60;24.80;;;;;;;7.61;61.72;100401.35;1884205;103;26280;-86
2022/11/25 14:59:34;;;;;;;48.70;26.75;;;;;;;7.66;61.62;100398.91;1902418;102;25807;-81
2022/11/25 15:03:11;;;;;;;50.55;26.68;;;;;;;7.74;61.59;100407.87;1885592;102;25827;-80
2022/11/25 15:06:38;;;;;;;53.25;27.20;;;;;;;7.78;61.53;100414.50;1905309;102;27034;-82
2022/11/25 15:10:13;;;;;;;51.50;27.20;;;;;;;7.82;61.49;100414.20;1896357;102;25992;-84
2022/11/25 15:13:53;;;;;;;53.92;26.50;;;;;;;7.86;61.47;100408.27;1930812;101;26550;-81
2022/11/25 15:17:32;;;;;;;44.63;26.57;;;;;;;7.88;61.43;100417.02;1892099;101;25954;-80
2022/11/25 15:21:11;;;;;;;53.08;26.02;;;;;;;7.92;61.37;100418.00;1940725;99;25969;-84
2022/11/25 15:24:51;;;;;;;45.38;26.42;;;;;;;7.95;61.35;100424.59;1968549;98;27075;-84
2022/11/25 15:28:42;;;;;;;49.38;27.95;;;;;;;7.96;61.32;100418.15;1960566;99;26094;-83
2022/11/25 15:32:12;;;;;;;49.42;27.27;;;;;;;8.00;61.32;100424.36;1931809;100;25845;-82
2022/11/25 15:35:37;;;;;;;47.10;26.42;;;;;;;8.01;61.30;100424.39;1984995;97;25991;-85
2022/11/25 15:39:24;;;;;;;49.67;26.52;;;;;;;8.03;61.26;100426.64;2086623;92;26467;-81
2022/11/25 15:42:45;;;;;;;45.12;25.23;;;;;;;8.05;61.25;100423.66;2101966;93;25990;-81
2022/11/25 15:46:33;;;;;;;49.30;27.00;;;;;;;8.07;61.25;100426.33;2108265;92;25847;-78
2022/11/25 15:50:00;;;;;;;45.12;24.63;;;;;;;8.08;61.22;100424.19;2166186;90;25887;-80
2022/11/25 15:53:35;;;;;;;47.58;25.23;;;;;;;8.10;61.21;100425.53;2156990;88;26459;-84
2022/11/25 15:57:21;;;;;;;48.55;25.27;;;;;;;8.13;61.20;100423.91;2218188;83;25707;-81
2022/11/25 16:01:18;;;;;;;46.23;25.48;;;;;;;8.14;61.20;100429.60;2354583;83;25774;-82
2022/11/25 16:05:00;;;;;;;48.05;25.85;;;;;;;8.16;61.19;100430.94;2356143;82;25649;-82
2022/11/25 16:08:39;;;;;;;48.10;25.50;;;;;;;8.18;61.19;100431.89;2356593;83;25705;-81
2022/11/25 16:12:15;;;;;;;43.17;24.18;;;;;;;8.18;61.17;100436.66;2351157;82;25784;-81
2022/11/25 16:15:46;;;;;;;48.02;26.90;;;;;;;8.19;61.18;100431.92;2350931;83;25663;-81
2022/11/25 16:19:26;;;;;;;48.90;25.30;;;;;;;8.21;61.14;100428.98;2361030;83;25789;-81
2022/11/25 16:22:50;;;;;;;51.25;25.08;;;;;;;8.22;61.15;100425.95;2345687;82;25658;-79
2022/11/25 16:26:40;;;;;;;43.92;24.35;;;;;;;8.25;62.25;100432.14;2352042;82;30450;-82
2022/11/25 16:30:25;;;;;;;45.73;25.75;;;;;;;8.34;62.25;100434.17;2346168;82;26036;-79
2022/11/25 16:34:25;;;;;;;44.35;25.35;;;;;;;8.36;61.91;100439.41;2321914;82;25710;-84
2022/11/25 16:38:03;;;;;;;47.60;28.10;;;;;;;8.34;61.80;100434.17;2351644;82;26233;-85
2022/11/25 16:41:46;;;;;;;43.48;24.77;;;;;;;8.33;61.78;100440.17;2357289;82;25714;-83
2022/11/25 16:45:48;;;;;;;;;;;;;;;;;;;;;
2022/11/25 16:52:37;;;;;;;44.63;24.75;;;;;;;8.32;61.65;100433.64;2228518;86;25842;-84
2022/11/25 16:56:19;;;;;;;48.73;25.85;;;;;;;8.32;61.61;100442.73;2213163;88;26523;-83
2022/11/25 16:59:57;;;;;;;47.20;25.17;;;;;;;8.31;61.52;100444.88;2201001;87;25810;-82
2022/11/25 17:03:34;;;;;;;42.25;24.32;;;;;;;8.30;61.46;100440.07;2143857;91;25830;-83
2022/11/25 17:06:59;;;;;;;53.15;27.87;;;;;;;8.28;61.41;100443.93;2150298;90;26177;-83
2022/11/25 17:10:33;;;;;;;50.25;26.90;;;;;;;8.27;61.37;100445.19;2149342;90;26364;-82
2022/11/25 17:14:15;;;;;;;47.35;26.77;;;;;;;8.29;61.31;100450.00;2153538;90;25767;-83
2022/11/25 17:17:43;;;;;;;44.25;24.45;;;;;;;8.28;61.27;100457.34;2150594;89;25798;-82
2022/11/25 17:21:20;;;;;;;;;;;;;;;;;;;;;
2022/11/25 17:24:39;;;;;;;48.28;27.35;;;;;;;8.26;61.15;100458.56;2150667;89;26087;-83
2022/11/25 17:28:09;;;;;;;47.83;25.50;;;;;;;8.26;61.09;100455.97;2167906;89;25890;-84
2022/11/25 17:31:37;;;;;;;50.90;26.60;;;;;;;8.26;61.06;100458.98;2171781;89;25699;-83
2022/11/25 17:34:59;;;;;;;46.30;26.82;;;;;;;8.25;61.03;100458.53;2130233;91;25538;-83
2022/11/25 17:42:06;;;;;;;49.38;26.42;;;;;;;8.25;60.98;100452.03;2121788;92;25836;-82
2022/11/25 17:49:23;;;;;;;48.92;28.05;;;;;;;8.24;60.94;100445.09;1970743;98;25987;-85
2022/11/25 17:53:03;;;;;;;;;;;;;;;;;;;;;
2022/11/25 17:56:31;;;;;;;50.50;26.48;;;;;;;8.24;60.86;100463.27;1872795;103;26029;-83
2022/11/25 18:00:38;;;;;;;;;;;;;;;;;;;;;
